KASD

Slidell Airport

Slidell, Louisiana, USA
METAR KASD 232211Z AUTO 14013G21KT 7SM -RA BKN017 BKN027 OVC075 23/21 A3017 RMK AO2 RAB03 P0000 T02330206
Observed Flight Rules
Feb-23 @ 22:11 UTC (24 minutes ago) Marginal Visual Flight Rules
Wind Visibility Clouds Conditions
140° at 13 knots
 Gusting to 21 knots
7 miles
  • Broken at 1,700' AGL
  • Broken at 2,700' AGL
  • Overcast at 7,500' AGL
  • Light Rain
Temperatures Readings Precipitation
Current 23°C / 73°F
Dewpoint 21°C / 70°F
Humidity 89%
Altimeter 30.17" Hg
Pressure 1022 hPa
Elevation 9
Current Rain 0.005
METAR KASD 232211Z AUTO 14013G21KT 7SM -RA BKN017 BKN027 OVC075 23/21 A3017 RMK AO2 RAB03 P0000 T02330206
Observed Flight Rules
Feb-23 @ 22:11 UTC
(24 minutes ago)
MVFR
Wind Visibility
140° at 13 knots
 Gusting to 21 knots
7 miles
Clouds
  • Broken at 1,700' AGL
  • Broken at 2,700' AGL
  • Overcast at 7,500' AGL
Conditions
  • Light Rain
Temperature Dewpoint
23°C / 73°F 21°C / 70°F
Humidity Altimeter Pressure
89% 30.17" Hg 1022 hPa
Current Rain
0.005